Time;durP1;ratioP1;P1;durP2;ratioP2;P2;SDS_P1;SDS_P2;PMS_P1;PMS_P2;Temp;Humidity;BMP_temperature;BMP_pressure;BME280_temperature;BME280_humidity;BME280_pressure;Samples;Min_cycle;Max_cycle;Signal;HPM_P1;HPM_P2
2021/05/19 00:00:24;;;;;;;5.15;2.00;;;;;;;4.42;100.00;93046.03;2112567;28;20023;-85
2021/05/19 00:01:25;;;;;;;4.15;1.70;;;;;;;4.53;100.00;93046.81;2100004;28;20056;-85
2021/05/19 00:02:26;;;;;;;3.60;1.52;;;;;;;4.48;100.00;93049.09;2106995;28;20028;-85
2021/05/19 00:03:28;;;;;;;4.03;1.92;;;;;;;4.48;100.00;93039.25;2106567;28;20016;-85
2021/05/19 00:04:28;;;;;;;2.95;1.60;;;;;;;4.52;100.00;93044.53;2106948;27;20024;-84
2021/05/19 00:05:29;;;;;;;2.15;1.95;;;;;;;4.48;100.00;93043.78;2106357;28;20144;-84
2021/05/19 00:06:30;;;;;;;4.95;1.98;;;;;;;4.46;100.00;93046.78;2110522;28;20035;-85
2021/05/19 00:07:31;;;;;;;5.88;1.92;;;;;;;4.42;100.00;93042.63;2100737;28;20450;-86
2021/05/19 00:08:31;;;;;;;2.60;1.80;;;;;;;4.45;100.00;93032.06;2098033;28;20020;-87
2021/05/19 00:09:32;;;;;;;4.78;1.98;;;;;;;4.40;100.00;93044.91;2115251;28;20024;-85
2021/05/19 00:10:34;;;;;;;3.92;2.03;;;;;;;4.42;100.00;93058.53;2123701;27;20021;-85
2021/05/19 00:11:36;;;;;;;4.43;2.20;;;;;;;4.41;100.00;93044.53;2105871;28;20023;-87
2021/05/19 00:12:37;;;;;;;3.28;1.95;;;;;;;4.34;100.00;93038.47;2101799;28;20516;-85
2021/05/19 00:13:38;;;;;;;3.45;2.17;;;;;;;4.34;100.00;93047.16;2119633;27;20027;-85
2021/05/19 00:14:38;;;;;;;2.92;2.05;;;;;;;4.39;100.00;93048.69;2106803;28;20024;-86
2021/05/19 00:15:39;;;;;;;6.70;2.40;;;;;;;4.41;100.00;93041.13;2108736;28;20792;-86
2021/05/19 00:16:40;;;;;;;5.05;2.30;;;;;;;4.48;100.00;93046.44;2103209;28;20043;-85
2021/05/19 00:17:43;;;;;;;3.72;1.90;;;;;;;4.43;100.00;93050.19;2096956;28;20392;-86
2021/05/19 00:18:44;;;;;;;3.08;2.08;;;;;;;4.41;100.00;93049.06;2090437;28;20033;-86
2021/05/19 00:19:44;;;;;;;5.30;2.65;;;;;;;4.43;100.00;93047.53;2098858;28;20027;-86
2021/05/19 00:20:45;;;;;;;3.80;2.03;;;;;;;4.42;100.00;93051.34;2111366;28;20019;-87
2021/05/19 00:21:46;;;;;;;2.70;2.38;;;;;;;4.42;100.00;93048.69;2098189;28;20473;-86
2021/05/19 00:22:47;;;;;;;2.42;2.22;;;;;;;4.42;100.00;93043.41;2092987;28;20032;-85
2021/05/19 00:23:48;;;;;;;3.10;2.08;;;;;;;4.43;100.00;93050.19;2094393;28;20052;-86
2021/05/19 00:24:49;;;;;;;2.95;2.10;;;;;;;4.51;100.00;93048.31;2097895;28;20370;-86
2021/05/19 00:25:49;;;;;;;2.10;1.85;;;;;;;4.52;100.00;93055.88;2102452;28;20024;-86
2021/05/19 00:26:50;;;;;;;6.88;2.33;;;;;;;4.52;100.00;93052.47;2098313;28;20029;-87
2021/05/19 00:27:52;;;;;;;2.63;1.83;;;;;;;4.53;100.00;93057.41;2097751;28;20055;-85
2021/05/19 00:28:55;;;;;;;5.25;2.20;;;;;;;4.40;100.00;93048.31;2115186;28;20106;-84
2021/05/19 00:29:56;;;;;;;2.50;2.10;;;;;;;4.40;100.00;93052.84;2114516;28;20098;-87
2021/05/19 00:31:00;;;;;;;5.72;2.40;;;;;;;4.44;100.00;93046.44;2098531;28;20021;-84
2021/05/19 00:32:00;;;;;;;3.63;2.38;;;;;;;4.41;100.00;93055.13;2114353;28;20088;-84
2021/05/19 00:33:02;;;;;;;5.43;2.20;;;;;;;4.40;100.00;93056.25;2102380;28;20484;-84
2021/05/19 00:34:03;;;;;;;3.97;2.20;;;;;;;4.40;100.00;93045.66;2106163;28;20032;-86
2021/05/19 00:35:04;;;;;;;4.57;2.20;;;;;;;4.46;100.00;93049.44;2109626;28;20027;-86
2021/05/19 00:36:05;;;;;;;2.28;2.00;;;;;;;4.43;100.00;93049.44;2106565;28;20461;-86
2021/05/19 00:37:05;;;;;;;2.38;2.13;;;;;;;4.41;100.00;93057.75;2093975;28;20024;-86
2021/05/19 00:38:06;;;;;;;4.20;1.75;;;;;;;4.40;100.00;93052.84;2104767;28;20077;-85
2021/05/19 00:39:09;;;;;;;4.65;2.15;;;;;;;4.42;100.00;93046.03;2097954;28;20028;-83
2021/05/19 00:40:11;;;;;;;2.50;1.90;;;;;;;4.42;100.00;93048.69;2098820;28;20413;-87
2021/05/19 00:41:12;;;;;;;4.75;1.90;;;;;;;4.40;100.00;93052.84;2106445;28;20032;-85
2021/05/19 00:42:15;;;;;;;3.50;2.40;;;;;;;4.41;100.00;93051.72;2111765;28;20016;-86
2021/05/19 00:43:16;;;;;;;3.85;2.30;;;;;;;4.42;100.00;93046.03;2108860;28;20020;-85
2021/05/19 00:44:17;;;;;;;2.28;2.00;;;;;;;4.42;100.00;93053.22;2098022;28;20091;-87
2021/05/19 00:45:18;;;;;;;3.28;2.10;;;;;;;4.36;100.00;93050.22;2092257;28;20020;-86
2021/05/19 00:46:19;;;;;;;4.13;2.45;;;;;;;4.36;100.00;93049.44;2093071;28;20024;-87
2021/05/19 00:47:39;;;;;;;2.47;2.00;;;;;;;4.39;100.00;93052.09;2099131;28;20497;-84
2021/05/19 00:48:41;;;;;;;3.65;1.70;;;;;;;4.31;100.00;93050.59;2109833;28;20032;-85
2021/05/19 00:49:41;;;;;;;6.13;2.40;;;;;;;4.36;100.00;93050.22;2110357;28;20024;-84
2021/05/19 00:50:42;;;;;;;2.20;1.83;;;;;;;4.35;100.00;93046.06;2106280;28;20101;-86
2021/05/19 00:51:43;;;;;;;3.00;1.98;;;;;;;4.31;100.00;93042.66;2106348;28;20032;-86
2021/05/19 00:52:44;;;;;;;3.85;1.90;;;;;;;4.32;100.00;93049.44;2099285;28;20111;-86
2021/05/19 00:53:45;;;;;;;2.47;2.13;;;;;;;4.26;100.00;93040.38;2097723;28;20032;-88
2021/05/19 00:54:45;;;;;;;2.17;1.85;;;;;;;4.26;100.00;93043.03;2106396;28;20028;-86
2021/05/19 00:55:46;;;;;;;2.63;1.90;;;;;;;4.29;100.00;93047.53;2114779;28;20012;-88
2021/05/19 00:56:47;;;;;;;3.05;1.95;;;;;;;4.23;100.00;93047.16;2115090;28;20050;-86
2021/05/19 00:57:51;;;;;;;2.13;1.90;;;;;;;4.25;100.00;93038.84;2107012;28;20046;-86
2021/05/19 00:58:56;;;;;;;2.78;1.92;;;;;;;4.17;100.00;93043.41;2110292;27;20015;-86
2021/05/19 00:59:58;;;;;;;8.35;2.10;;;;;;;4.20;100.00;93045.28;2106942;28;20416;-84
2021/05/19 01:00:59;;;;;;;2.50;1.77;;;;;;;4.23;100.00;93046.41;2103096;28;20640;-86
2021/05/19 01:01:59;;;;;;;2.05;1.75;;;;;;;4.22;100.00;93045.66;2106628;28;20024;-85
2021/05/19 01:03:00;;;;;;;2.20;2.00;;;;;;;4.24;100.00;93043.38;2106493;28;20418;-85
2021/05/19 01:04:03;;;;;;;3.75;1.90;;;;;;;4.21;100.00;93043.38;2106101;28;20020;-85
2021/05/19 01:05:08;;;;;;;2.63;1.75;;;;;;;4.17;100.00;93039.97;2108801;27;20492;-86
2021/05/19 01:06:15;;;;;;;3.40;1.70;;;;;;;4.15;100.00;93039.59;2117038;27;20024;-87
2021/05/19 01:07:27;;;;;;;3.40;1.73;;;;;;;4.16;100.00;93038.47;2106254;28;20069;-86
2021/05/19 01:09:47;;;;;;;2.00;1.52;;;;;;;4.04;100.00;93040.34;2117294;27;20027;-85
2021/05/19 01:10:48;;;;;;;1.85;1.60;;;;;;;4.02;100.00;93036.56;2106294;28;20020;-86
2021/05/19 01:11:49;;;;;;;4.07;1.70;;;;;;;3.97;100.00;93044.88;2098089;28;20527;-85
2021/05/19 01:12:49;;;;;;;5.90;2.08;;;;;;;3.98;100.00;93046.38;2090122;28;20024;-85
2021/05/19 01:13:50;;;;;;;2.80;1.67;;;;;;;4.03;100.00;93036.19;2106129;28;20035;-86
2021/05/19 01:14:52;;;;;;;2.20;1.80;;;;;;;3.97;100.00;93042.97;2102504;28;20031;-85
2021/05/19 01:15:53;;;;;;;1.95;1.80;;;;;;;3.89;100.00;93043.34;2097857;28;20059;-86
2021/05/19 01:16:54;;;;;;;2.30;1.60;;;;;;;3.90;100.00;93048.25;2102680;28;20043;-88
2021/05/19 01:17:54;;;;;;;6.30;2.13;;;;;;;3.84;100.00;93044.47;2107230;28;20032;-84
2021/05/19 01:18:55;;;;;;;2.83;1.77;;;;;;;3.98;100.00;93036.56;2106140;28;20027;-86
2021/05/19 01:19:56;;;;;;;1.90;1.65;;;;;;;3.84;100.00;93036.53;2106372;28;20027;-85
2021/05/19 01:20:58;;;;;;;4.28;1.75;;;;;;;3.71;100.00;93043.28;2114660;28;20118;-85
2021/05/19 01:22:28;;;;;;;3.25;1.58;;;;;;;3.74;100.00;93047.84;2105465;28;20154;-87
2021/05/19 01:23:32;;;;;;;4.70;1.52;;;;;;;3.75;100.00;93044.81;2110966;27;20030;-85
2021/05/19 01:24:33;;;;;;;2.65;1.48;;;;;;;3.72;100.00;93042.91;2106513;28;20481;-86
2021/05/19 01:25:36;;;;;;;3.50;1.83;;;;;;;3.70;100.00;93039.91;2114636;28;20557;-84
2021/05/19 01:26:36;;;;;;;3.05;1.27;;;;;;;3.62;100.00;93043.66;2106211;28;20503;-84
2021/05/19 01:27:38;;;;;;;3.65;1.88;;;;;;;3.58;100.00;93047.41;2096408;28;20171;-84
2021/05/19 01:28:41;;;;;;;4.32;1.60;;;;;;;3.58;100.00;93047.41;2104399;27;20035;-85
2021/05/19 01:29:45;;;;;;;2.65;1.70;;;;;;;3.52;100.00;93049.66;2120396;27;20077;-84
2021/05/19 01:30:46;;;;;;;3.40;1.67;;;;;;;3.51;100.00;93048.91;2105484;28;20035;-84
2021/05/19 01:31:47;;;;;;;1.85;1.67;;;;;;;3.52;100.00;93039.84;2106211;28;20402;-86
2021/05/19 01:32:48;;;;;;;1.77;1.50;;;;;;;3.53;100.00;93044.00;2105800;28;20392;-83
2021/05/19 01:33:49;;;;;;;3.80;1.80;;;;;;;3.57;100.00;93048.53;2092924;28;20024;-84
2021/05/19 01:34:50;;;;;;;4.95;2.03;;;;;;;3.51;100.00;93043.63;2106152;28;20404;-84
2021/05/19 01:35:51;;;;;;;5.40;1.98;;;;;;;3.51;100.00;93048.91;2105676;28;20016;-86
2021/05/19 01:36:52;;;;;;;2.58;2.20;;;;;;;3.53;100.00;93049.28;2104693;28;20031;-86
2021/05/19 01:37:53;;;;;;;2.15;1.95;;;;;;;3.40;100.00;93050.75;2114407;28;20482;-85
2021/05/19 01:38:53;;;;;;;2.53;1.63;;;;;;;3.44;100.00;93048.88;2106148;28;20141;-88
2021/05/19 01:39:54;;;;;;;3.85;1.73;;;;;;;3.39;100.00;93040.56;2106149;28;20030;-87
2021/05/19 01:40:55;;;;;;;3.10;1.88;;;;;;;3.39;100.00;93041.31;2091122;28;20031;-86
2021/05/19 01:41:56;;;;;;;1.70;1.60;;;;;;;3.37;100.00;93048.06;2114359;28;20031;-86
2021/05/19 01:42:56;;;;;;;3.13;1.85;;;;;;;3.28;100.00;93043.13;2115541;27;20032;-85
2021/05/19 01:43:57;;;;;;;3.08;1.70;;;;;;;3.28;100.00;93046.53;2122697;27;20027;-87
2021/05/19 01:44:58;;;;;;;1.90;1.80;;;;;;;3.36;100.00;93049.22;2110671;28;20103;-85
2021/05/19 01:46:01;;;;;;;1.95;1.75;;;;;;;3.29;100.00;93052.56;2097471;28;20035;-84
2021/05/19 01:47:03;;;;;;;1.70;1.60;;;;;;;3.25;100.00;93046.53;2106620;27;20020;-85
2021/05/19 01:48:06;;;;;;;2.92;1.80;;;;;;;3.26;100.00;93048.03;2114623;28;20023;-85
2021/05/19 01:49:08;;;;;;;2.03;1.50;;;;;;;3.22;100.00;93050.66;2112229;28;20024;-85
2021/05/19 01:50:12;;;;;;;2.78;1.70;;;;;;;3.31;100.00;93054.84;2106274;28;20019;-85
2021/05/19 01:51:13;;;;;;;5.30;1.90;;;;;;;3.19;100.00;93054.03;2109918;27;20023;-85
2021/05/19 01:52:14;;;;;;;2.05;1.77;;;;;;;3.18;100.00;93055.16;2122801;27;20115;-87
2021/05/19 01:53:15;;;;;;;3.22;1.70;;;;;;;3.13;100.00;93049.50;2105809;28;20059;-84
2021/05/19 01:54:17;;;;;;;1.67;1.58;;;;;;;3.14;100.00;93056.28;2101990;28;20020;-85
2021/05/19 01:55:18;;;;;;;3.08;1.55;;;;;;;3.13;100.00;93055.53;2108597;28;20386;-86
2021/05/19 01:56:18;;;;;;;6.40;2.00;;;;;;;3.01;100.00;93056.59;2100327;28;20028;-86
2021/05/19 01:57:19;;;;;;;1.75;1.65;;;;;;;3.06;100.00;93057.34;2095804;28;20198;-86
2021/05/19 01:58:20;;;;;;;5.15;1.90;;;;;;;3.05;100.00;93050.56;2104530;28;20032;-85
2021/05/19 01:59:21;;;;;;;2.30;1.48;;;;;;;3.07;100.00;93056.22;2113729;28;20034;-86
2021/05/19 02:00:25;;;;;;;2.70;1.55;;;;;;;3.01;100.00;93061.88;2106360;28;20110;-85
2021/05/19 02:01:25;;;;;;;1.65;1.50;;;;;;;3.06;100.00;93057.34;2110332;27;20028;-86
2021/05/19 02:02:26;;;;;;;3.60;2.15;;;;;;;3.13;100.00;93052.88;2113301;28;20110;-85
2021/05/19 02:03:27;;;;;;;2.00;1.73;;;;;;;3.09;100.00;93057.38;2106050;28;20460;-85
2021/05/19 02:04:28;;;;;;;4.47;2.10;;;;;;;3.14;100.00;93058.91;2107052;28;20076;-85
2021/05/19 02:05:31;;;;;;;2.40;1.70;;;;;;;3.18;100.00;93057.81;2113822;28;20047;-85
2021/05/19 02:06:54;;;;;;;3.05;1.73;;;;;;;3.19;100.00;93059.31;2114253;28;20357;-86
2021/05/19 02:07:56;;;;;;;4.93;2.00;;;;;;;3.10;100.00;93052.84;2102183;28;20114;-85
2021/05/19 02:08:57;;;;;;;2.03;1.70;;;;;;;3.16;100.00;93060.06;2096631;28;20373;-86
2021/05/19 02:09:57;;;;;;;3.20;1.90;;;;;;;3.15;100.00;93055.16;2101906;28;20035;-85
2021/05/19 02:10:58;;;;;;;4.10;1.90;;;;;;;3.17;100.00;93061.59;2118584;28;20023;-86
2021/05/19 02:11:59;;;;;;;2.13;1.90;;;;;;;3.17;100.00;93063.47;2126122;27;20023;-85
2021/05/19 02:13:01;;;;;;;3.63;1.80;;;;;;;3.20;100.00;93060.06;2107585;28;20024;-88
2021/05/19 02:14:03;;;;;;;2.33;1.60;;;;;;;3.24;100.00;93060.84;2096609;28;20032;-85
2021/05/19 02:15:05;;;;;;;2.75;1.60;;;;;;;3.35;100.00;93059.03;2097936;28;20035;-85
2021/05/19 02:16:06;;;;;;;1.92;1.50;;;;;;;3.32;100.00;93059.75;2100813;28;20085;-87
2021/05/19 02:17:07;;;;;;;2.50;1.55;;;;;;;3.29;100.00;93057.84;2105570;28;20020;-85
2021/05/19 02:18:08;;;;;;;1.73;1.33;;;;;;;3.32;100.00;93059.75;2114222;28;20115;-85
2021/05/19 02:19:10;;;;;;;1.90;1.73;;;;;;;3.31;100.00;93058.25;2119838;28;20046;-85
2021/05/19 02:20:14;;;;;;;1.52;1.27;;;;;;;3.28;100.00;93056.34;2108619;28;20116;-87
2021/05/19 02:21:15;;;;;;;7.25;2.47;;;;;;;3.36;100.00;93057.13;2114137;28;20054;-86
2021/05/19 02:22:15;;;;;;;4.20;1.90;;;;;;;3.35;100.00;93053.00;2105761;28;20024;-86
2021/05/19 02:23:16;;;;;;;2.38;1.67;;;;;;;3.36;100.00;93062.41;2108971;28;20027;-87
2021/05/19 02:24:18;;;;;;;2.83;1.80;;;;;;;3.39;100.00;93059.03;2104978;28;20148;-84
2021/05/19 02:25:21;;;;;;;2.13;1.90;;;;;;;3.44;100.00;93054.16;2097964;28;20063;-86
2021/05/19 02:26:21;;;;;;;2.67;1.80;;;;;;;3.48;100.00;93056.81;2114302;28;20544;-86
2021/05/19 02:27:22;;;;;;;2.97;1.75;;;;;;;3.60;100.00;93059.13;2097374;28;20040;-86
2021/05/19 02:28:23;;;;;;;3.97;1.70;;;;;;;3.64;100.00;93059.13;2097624;28;20024;-84
2021/05/19 02:29:24;;;;;;;4.20;2.17;;;;;;;3.66;100.00;93051.59;2099301;28;20070;-86
2021/05/19 02:30:25;;;;;;;4.43;2.35;;;;;;;3.65;100.00;93060.66;2097493;28;20051;-87
2021/05/19 02:31:26;;;;;;;3.35;2.22;;;;;;;3.87;100.00;93056.94;2105752;28;20437;-86
2021/05/19 02:32:27;;;;;;;3.17;2.33;;;;;;;3.91;100.00;93052.41;2097483;28;20028;-87
2021/05/19 02:33:28;;;;;;;4.18;2.47;;;;;;;4.07;100.00;93053.94;2112721;28;20012;-85
2021/05/19 02:34:29;;;;;;;5.15;2.67;;;;;;;4.10;100.00;93048.66;2113997;28;20051;-86
2021/05/19 02:35:29;;;;;;;4.50;2.75;;;;;;;4.08;100.00;93050.16;2114423;28;20411;-87
2021/05/19 02:36:31;;;;;;;3.63;2.58;;;;;;;4.15;100.00;93052.81;2105730;28;20074;-87
2021/05/19 02:37:31;;;;;;;6.68;2.53;;;;;;;4.15;100.00;93048.28;2114430;28;20102;-87
2021/05/19 02:38:34;;;;;;;4.43;2.88;;;;;;;4.06;100.00;93047.91;2108926;28;20469;-86
2021/05/19 02:39:35;;;;;;;3.35;2.47;;;;;;;4.20;100.00;93047.16;2098944;28;20039;-86
2021/05/19 02:40:36;;;;;;;3.03;2.35;;;;;;;4.12;100.00;93045.63;2113895;28;20523;-86
2021/05/19 02:41:38;;;;;;;3.05;2.50;;;;;;;4.10;100.00;93042.63;2103955;28;20473;-85
2021/05/19 02:42:39;;;;;;;3.97;2.20;;;;;;;4.11;100.00;93046.78;2090594;28;20599;-89
2021/05/19 02:43:39;;;;;;;6.20;2.70;;;;;;;4.07;100.00;93046.00;2101319;28;20037;-86
2021/05/19 02:44:40;;;;;;;4.32;2.33;;;;;;;4.01;100.00;93051.69;2114271;28;20106;-86
2021/05/19 02:45:41;;;;;;;2.90;2.03;;;;;;;4.07;100.00;93053.94;2110258;28;20411;-87
2021/05/19 02:46:42;;;;;;;3.75;2.63;;;;;;;4.03;100.00;93044.09;2112336;28;20038;-87
2021/05/19 02:47:42;;;;;;;2.90;2.60;;;;;;;4.04;100.00;93042.25;2108404;28;20024;-84
2021/05/19 02:48:43;;;;;;;7.22;2.58;;;;;;;4.16;100.00;93046.41;2103676;28;20032;-84
2021/05/19 02:49:44;;;;;;;5.57;2.42;;;;;;;4.20;100.00;93033.94;2105616;28;20158;-85
2021/05/19 02:50:45;;;;;;;5.32;2.58;;;;;;;4.09;100.00;93036.59;2107449;28;20028;-85
2021/05/19 02:51:45;;;;;;;3.60;2.10;;;;;;;4.08;100.00;93039.59;2097688;28;20032;-85
2021/05/19 02:52:47;;;;;;;5.55;2.30;;;;;;;4.12;100.00;93035.06;2109836;28;20028;-85
2021/05/19 02:53:47;;;;;;;3.53;2.45;;;;;;;4.11;100.00;93031.66;2113782;28;20037;-85
2021/05/19 02:54:48;;;;;;;3.78;2.65;;;;;;;4.12;100.00;93040.34;2105460;28;20551;-87
2021/05/19 02:55:49;;;;;;;2.45;2.25;;;;;;;4.03;100.00;93035.41;2097275;28;20031;-86
2021/05/19 02:56:50;;;;;;;4.07;2.50;;;;;;;4.09;100.00;93035.81;2120806;28;20423;-87
2021/05/19 02:57:50;;;;;;;4.88;3.08;;;;;;;4.13;100.00;93032.06;2105574;28;20074;-85
2021/05/19 02:58:52;;;;;;;4.03;2.60;;;;;;;4.06;100.00;93032.03;2105543;28;20024;-87
2021/05/19 02:59:53;;;;;;;3.05;2.30;;;;;;;3.98;100.00;93035.78;2104681;28;20058;-85
2021/05/19 03:00:54;;;;;;;4.03;2.40;;;;;;;4.02;100.00;93033.91;2105853;28;20557;-86
2021/05/19 03:01:55;;;;;;;5.47;2.50;;;;;;;4.00;100.00;93042.22;2094946;28;20111;-85
2021/05/19 03:02:56;;;;;;;3.67;2.40;;;;;;;3.96;100.00;93038.81;2101869;28;20024;-87
2021/05/19 03:03:57;;;;;;;2.42;2.00;;;;;;;4.01;100.00;93029.75;2113763;28;20057;-85
2021/05/19 03:04:57;;;;;;;2.30;2.10;;;;;;;3.94;100.00;93037.69;2105868;28;20111;-85
2021/05/19 03:05:58;;;;;;;4.65;2.58;;;;;;;3.88;100.00;93034.66;2105661;28;20103;-86
2021/05/19 03:06:59;;;;;;;3.45;2.33;;;;;;;3.87;100.00;93027.09;2105707;28;20024;-86
2021/05/19 03:08:00;;;;;;;4.53;2.30;;;;;;;3.84;100.00;93031.25;2105968;28;20499;-87
2021/05/19 03:09:01;;;;;;;8.02;2.47;;;;;;;3.81;100.00;93031.22;2124098;27;20098;-85
2021/05/19 03:10:03;;;;;;;3.85;2.42;;;;;;;3.76;100.00;93030.47;2115598;28;20037;-85
2021/05/19 03:11:04;;;;;;;5.32;2.50;;;;;;;3.85;100.00;93026.72;2098860;28;20118;-86
2021/05/19 03:12:06;;;;;;;5.22;2.38;;;;;;;3.76;100.00;93022.53;2103236;28;20027;-84
2021/05/19 03:13:06;;;;;;;6.80;2.50;;;;;;;3.73;100.00;93025.94;2092366;28;20052;-87
2021/05/19 03:14:07;;;;;;;2.40;2.20;;;;;;;3.72;100.00;93021.00;2107308;28;20024;-86
2021/05/19 03:15:09;;;;;;;2.33;2.13;;;;;;;3.74;100.00;93022.16;2098708;28;20043;-86
2021/05/19 03:16:10;;;;;;;5.35;2.28;;;;;;;3.72;100.00;93026.28;2107216;28;20022;-85
2021/05/19 03:17:11;;;;;;;2.67;2.40;;;;;;;3.74;100.00;93026.69;2114816;28;20027;-86
2021/05/19 03:18:12;;;;;;;5.68;2.47;;;;;;;3.80;100.00;93030.47;2122723;27;20020;-87
2021/05/19 03:19:12;;;;;;;5.38;2.38;;;;;;;3.78;100.00;93024.81;2107021;28;20031;-85
2021/05/19 03:20:14;;;;;;;4.63;2.92;;;;;;;3.71;100.00;93025.53;2107224;28;20024;-86
2021/05/19 03:21:14;;;;;;;2.70;2.40;;;;;;;3.76;100.00;93035.00;2110938;28;20031;-86
2021/05/19 03:22:15;;;;;;;5.45;2.47;;;;;;;3.81;100.00;93025.94;2099485;28;20024;-85
2021/05/19 03:23:16;;;;;;;3.70;2.17;;;;;;;3.79;100.00;93040.28;2115527;28;20043;-86
2021/05/19 03:24:17;;;;;;;5.85;2.17;;;;;;;3.87;100.00;93041.06;2115465;28;20019;-85
2021/05/19 03:25:18;;;;;;;3.03;2.50;;;;;;;3.85;100.00;93029.34;2098703;28;20036;-84
2021/05/19 03:26:19;;;;;;;2.40;2.20;;;;;;;3.81;100.00;93036.50;2107205;28;20028;-85
2021/05/19 03:27:20;;;;;;;4.95;2.50;;;;;;;3.79;100.00;93037.66;2106947;28;20016;-86
2021/05/19 03:28:20;;;;;;;5.30;2.22;;;;;;;3.87;100.00;93041.06;2107112;28;20024;-86
2021/05/19 03:29:21;;;;;;;3.05;2.17;;;;;;;3.86;100.00;93042.19;2098475;28;20025;-86
2021/05/19 03:30:22;;;;;;;6.90;2.95;;;;;;;3.81;100.00;93036.50;2098677;28;21004;-85
2021/05/19 03:31:23;;;;;;;4.82;2.28;;;;;;;3.76;100.00;93043.69;2099921;28;20021;-85
2021/05/19 03:32:24;;;;;;;4.65;2.30;;;;;;;3.66;100.00;93044.41;2107758;28;20472;-85
2021/05/19 03:33:24;;;;;;;3.40;2.20;;;;;;;3.74;100.00;93053.13;2122589;27;20015;-86
2021/05/19 03:34:25;;;;;;;4.53;2.33;;;;;;;3.77;100.00;93057.66;2106910;28;20114;-85
2021/05/19 03:35:26;;;;;;;3.50;2.40;;;;;;;3.71;100.00;93054.63;2107210;28;20165;-85
2021/05/19 03:36:27;;;;;;;2.47;2.25;;;;;;;3.71;100.00;93057.25;2103558;28;20074;-87
2021/05/19 03:37:27;;;;;;;2.20;2.00;;;;;;;3.70;100.00;93057.66;2107027;28;20032;-87
2021/05/19 03:38:28;;;;;;;2.70;2.10;;;;;;;3.56;100.00;93061.00;2106983;28;20035;-86
2021/05/19 03:39:29;;;;;;;4.65;2.40;;;;;;;3.60;100.00;93066.28;2098562;28;20090;-85
2021/05/19 03:40:30;;;;;;;5.57;2.80;;;;;;;3.65;100.00;93065.94;2107174;28;20028;-85
2021/05/19 03:41:31;;;;;;;3.05;2.10;;;;;;;3.70;100.00;93071.63;2102482;28;20073;-85
2021/05/19 03:42:32;;;;;;;3.33;2.38;;;;;;;3.72;100.00;93064.06;2115365;28;20032;-86
2021/05/19 03:43:35;;;;;;;4.32;2.53;;;;;;;3.69;100.00;93072.75;2113862;28;20501;-86
2021/05/19 03:44:35;;;;;;;3.13;2.13;;;;;;;3.72;100.00;93066.69;2090866;28;20033;-85
2021/05/19 03:45:36;;;;;;;5.40;2.25;;;;;;;3.69;100.00;93067.47;2098429;28;20021;-86
2021/05/19 03:46:38;;;;;;;5.32;2.40;;;;;;;3.68;100.00;93078.38;2098536;28;20024;-85
2021/05/19 03:47:38;;;;;;;3.90;2.25;;;;;;;3.75;100.00;93073.88;2098491;28;20124;-87
2021/05/19 03:48:39;;;;;;;3.95;1.88;;;;;;;3.81;100.00;93084.84;2098463;28;20031;-86
2021/05/19 03:49:40;;;;;;;4.22;2.13;;;;;;;3.80;100.00;93072.78;2114124;28;20070;-84
2021/05/19 03:50:43;;;;;;;4.50;2.85;;;;;;;3.78;100.00;93081.09;2107165;28;20023;-86
2021/05/19 03:51:44;;;;;;;2.95;2.25;;;;;;;3.76;100.00;93083.31;2107106;28;20403;-85
2021/05/19 03:52:46;;;;;;;4.88;2.10;;;;;;;3.68;100.00;93087.06;2107095;28;20028;-88
2021/05/19 03:53:47;;;;;;;3.38;1.85;;;;;;;3.78;100.00;93086.38;2102432;28;20027;-85
2021/05/19 03:54:47;;;;;;;3.63;2.05;;;;;;;3.74;100.00;93087.50;2098588;28;20234;-85
2021/05/19 03:55:48;;;;;;;5.65;2.25;;;;;;;3.69;100.00;93082.56;2101322;28;20020;-86
2021/05/19 03:56:50;;;;;;;2.95;2.00;;;;;;;3.61;100.00;93083.66;2123029;27;20027;-85
2021/05/19 03:57:51;;;;;;;2.47;2.00;;;;;;;3.69;100.00;93082.56;2106992;28;20024;-87
2021/05/19 03:58:52;;;;;;;3.15;2.20;;;;;;;3.62;100.00;93080.66;2090092;28;20078;-87
2021/05/19 03:59:53;;;;;;;4.20;2.20;;;;;;;3.67;100.00;93082.16;2114093;28;20028;-86
2021/05/19 04:00:54;;;;;;;3.25;2.00;;;;;;;3.61;100.00;93086.31;2123947;27;20060;-87
2021/05/19 04:01:54;;;;;;;2.30;2.10;;;;;;;3.58;100.00;93085.16;2115274;28;20051;-85
2021/05/19 04:02:55;;;;;;;4.38;2.03;;;;;;;3.58;100.00;93087.81;2106986;28;20026;-85
2021/05/19 04:03:56;;;;;;;2.05;1.85;;;;;;;3.45;100.00;93082.09;2098449;28;20385;-85
2021/05/19 04:04:57;;;;;;;2.38;2.08;;;;;;;3.43;100.00;93080.97;2099264;28;20028;-86
2021/05/19 04:05:57;;;;;;;3.05;2.10;;;;;;;3.38;100.00;93081.28;2101898;28;20566;-86
2021/05/19 04:06:58;;;;;;;2.55;2.00;;;;;;;3.38;100.00;93087.34;2113218;28;20019;-86
2021/05/19 04:07:59;;;;;;;1.77;1.67;;;;;;;3.39;100.00;93088.84;2120743;27;20027;-86
2021/05/19 04:08:59;;;;;;;3.92;2.53;;;;;;;3.26;100.00;93087.66;2103138;28;20138;-86
2021/05/19 04:10:00;;;;;;;4.55;2.20;;;;;;;3.22;100.00;93094.81;2106964;28;20031;-85
2021/05/19 04:11:02;;;;;;;3.03;2.00;;;;;;;3.18;100.00;93094.78;2098711;28;20558;-86
2021/05/19 04:12:04;;;;;;;5.97;2.28;;;;;;;3.22;100.00;93094.81;2112775;28;20080;-86
2021/05/19 04:13:05;;;;;;;3.63;1.90;;;;;;;3.19;100.00;93095.53;2103784;28;20031;-85
2021/05/19 04:14:06;;;;;;;4.20;2.00;;;;;;;3.17;100.00;93089.88;2107089;27;20388;-86
2021/05/19 04:15:08;;;;;;;3.42;1.90;;;;;;;3.09;100.00;93089.06;2106683;28;20077;-85
2021/05/19 04:16:11;;;;;;;3.95;2.08;;;;;;;3.07;100.00;93093.94;2106952;27;20518;-87
2021/05/19 04:17:11;;;;;;;7.28;2.28;;;;;;;3.14;100.00;93090.59;2123637;27;20452;-88
2021/05/19 04:18:12;;;;;;;3.35;2.05;;;;;;;3.13;100.00;93095.13;2115822;27;20027;-87
2021/05/19 04:19:13;;;;;;;9.40;2.47;;;;;;;3.03;100.00;93090.56;2109793;28;20019;-86
2021/05/19 04:20:15;;;;;;;3.15;2.10;;;;;;;3.02;100.00;93094.31;2115180;28;20027;-87
2021/05/19 04:21:16;;;;;;;2.75;2.15;;;;;;;2.99;100.00;93090.53;2115396;28;20034;-88
2021/05/19 04:22:16;;;;;;;5.75;2.17;;;;;;;2.96;100.00;93093.91;2115031;28;20038;-86
2021/05/19 04:23:17;;;;;;;3.40;2.20;;;;;;;2.90;100.00;93090.09;2115069;28;20053;-87
2021/05/19 04:24:18;;;;;;;4.60;4.05;;;;;;;2.94;100.00;93098.81;2115083;28;20031;-87
2021/05/19 04:25:19;;;;;;;5.30;3.80;;;;;;;2.88;100.00;93097.59;2097769;28;20028;-87
2021/05/19 04:26:20;;;;;;;6.72;5.68;;;;;;;2.93;100.00;93101.78;2106682;27;20130;-85
2021/05/19 04:27:21;;;;;;;17.15;8.50;;;;;;;3.08;100.00;93102.66;2115141;28;20027;-87
2021/05/19 04:28:22;;;;;;;94.00;30.98;;;;;;;3.09;100.00;93096.25;2107081;28;20100;-86
2021/05/19 04:29:23;;;;;;;152.07;45.50;;;;;;;3.08;100.00;93102.66;2106592;28;20535;-85
2021/05/19 04:30:24;;;;;;;101.80;34.33;;;;;;;3.02;100.00;93105.63;2106580;28;20027;-86
2021/05/19 04:31:24;;;;;;;50.25;18.67;;;;;;;3.05;100.00;93103.38;2090072;28;20493;-85
2021/05/19 04:32:25;;;;;;;19.70;9.20;;;;;;;3.01;100.00;93106.75;2089870;28;20020;-86
2021/05/19 04:33:26;;;;;;;12.25;7.57;;;;;;;2.97;100.00;93105.97;2098073;28;20508;-84
2021/05/19 04:34:27;;;;;;;6.32;4.80;;;;;;;3.04;100.00;93107.91;2114820;28;20115;-85
2021/05/19 04:35:28;;;;;;;7.75;3.88;;;;;;;3.02;100.00;93110.91;2106538;28;20028;-87
2021/05/19 04:36:28;;;;;;;4.32;3.10;;;;;;;3.05;100.00;93116.59;2106726;28;20035;-86
2021/05/19 04:37:29;;;;;;;6.32;3.25;;;;;;;3.03;100.00;93109.78;2106563;28;20031;-85
2021/05/19 04:38:30;;;;;;;2.90;2.60;;;;;;;3.09;100.00;93109.44;2110094;28;20027;-86
2021/05/19 04:39:31;;;;;;;4.95;3.20;;;;;;;3.01;100.00;93111.28;2114931;28;20031;-86
2021/05/19 04:40:32;;;;;;;4.25;2.95;;;;;;;3.02;100.00;93115.41;2098356;28;20025;-85
2021/05/19 04:41:32;;;;;;;5.57;3.60;;;;;;;2.98;100.00;93109.34;2095185;28;20032;-86
2021/05/19 04:42:34;;;;;;;3.72;3.00;;;;;;;3.02;100.00;93112.78;2106521;28;20655;-86
2021/05/19 04:43:35;;;;;;;5.82;3.30;;;;;;;3.05;100.00;93114.69;2105721;28;20592;-84
2021/05/19 04:44:36;;;;;;;6.05;4.00;;;;;;;3.30;100.00;93119.38;2109976;28;20038;-85
2021/05/19 04:45:37;;;;;;;3.70;3.40;;;;;;;3.28;100.00;93120.50;2106353;28;20023;-85
2021/05/19 04:46:38;;;;;;;5.22;3.03;;;;;;;3.17;100.00;93114.41;2097222;28;20024;-87
2021/05/19 04:47:40;;;;;;;3.38;2.85;;;;;;;3.13;100.00;93123.44;2104588;28;20558;-85
2021/05/19 04:48:40;;;;;;;6.55;3.28;;;;;;;3.08;100.00;93119.25;2108046;28;20106;-86
2021/05/19 04:49:41;;;;;;;6.60;2.90;;;;;;;3.08;100.00;93121.13;2107662;28;20020;-88
2021/05/19 04:50:42;;;;;;;3.13;2.78;;;;;;;3.00;100.00;93120.31;2106357;28;20020;-87